Time;durP1;ratioP1;P1;durP2;ratioP2;P2;SDS_P1;SDS_P2;PMS_P1;PMS_P2;Temp;Humidity;BMP_temperature;BMP_pressure;BME280_temperature;BME280_humidity;BME280_pressure;Samples;Min_cycle;Max_cycle;Signal;HPM_P1;HPM_P2
2023/11/15 00:00:38;;;;;;;13.93;11.70;;;410.20;2355.20;;;;;;5059443;28;20025;-65
2023/11/15 00:03:04;;;;;;;19.80;13.90;;;410.30;2355.20;;;;;;5061771;28;20036;-62
2023/11/15 00:05:29;;;;;;;9.07;6.38;;;410.40;2355.20;;;;;;5061260;28;20052;-62
2023/11/15 00:07:55;;;;;;;14.88;10.98;;;435.20;2355.20;;;;;;5059921;28;20079;-62
2023/11/15 00:10:22;;;;;;;20.35;14.10;;;410.50;2355.20;;;;;;5060243;28;20053;-63
2023/11/15 00:12:48;;;;;;;9.52;6.88;;;410.50;2355.20;;;;;;5061424;28;20040;-64
2023/11/15 00:15:14;;;;;;;7.30;5.35;;;435.20;2355.20;;;;;;5060120;28;20421;-62
2023/11/15 00:17:41;;;;;;;3.55;2.22;;;435.30;2355.20;;;;;;5061480;28;20020;-62
2023/11/15 00:20:08;;;;;;;5.07;3.10;;;435.40;2355.20;;;;;;5061129;28;20443;-62
2023/11/15 00:22:35;;;;;;;5.25;2.67;;;435.50;2355.20;;;;;;5060186;28;20020;-63
2023/11/15 00:25:01;;;;;;;3.55;2.42;;;435.60;2355.20;;;;;;5062512;28;20039;-62
2023/11/15 00:27:26;;;;;;;3.05;1.80;;;435.60;2355.20;;;;;;5062688;28;20455;-61
2023/11/15 00:29:52;;;;;;;4.28;2.47;;;435.90;2355.20;;;;;;5060417;28;20027;-65
2023/11/15 00:32:19;;;;;;;3.45;1.50;;;435.90;2355.20;;;;;;5058868;28;20082;-63
2023/11/15 00:34:48;;;;;;;6.30;2.00;;;436.00;2355.20;;;;;;5062173;28;20387;-63
2023/11/15 00:37:14;;;;;;;4.95;1.90;;;436.10;2355.20;;;;;;5061767;28;20027;-66
2023/11/15 00:39:41;;;;;;;4.80;1.98;;;460.90;2380.80;;;;;;5059606;28;20095;-64
2023/11/15 00:42:10;;;;;;;4.60;2.20;;;460.90;2380.80;;;;;;5060173;28;20028;-63
2023/11/15 00:44:36;;;;;;;6.05;2.97;;;460.80;2380.80;;;;;;5061392;28;20028;-61
2023/11/15 00:47:05;;;;;;;3.95;2.22;;;460.80;2380.80;;;;;;5059745;28;20017;-66
2023/11/15 00:49:32;;;;;;;4.15;2.75;;;460.80;2380.80;;;;;;5059587;28;20474;-60
2023/11/15 00:51:58;;;;;;;4.57;3.17;;;460.80;2380.80;;;;;;5061126;28;20024;-66
2023/11/15 00:54:24;;;;;;;4.38;2.88;;;460.80;2380.80;;;;;;5057804;28;20025;-64
2023/11/15 00:56:50;;;;;;;5.00;2.58;;;461.00;2380.80;;;;;;5061174;28;20432;-64
2023/11/15 00:59:21;;;;;;;5.03;2.58;;;460.90;2380.80;;;;;;5059226;28;20035;-62
2023/11/15 01:01:57;;;;;;;4.45;2.50;;;436.10;2355.20;;;;;;5059108;28;20383;-62
2023/11/15 01:04:26;;;;;;;3.70;2.13;;;461.10;2380.80;;;;;;5059224;28;20075;-61
2023/11/15 01:06:52;;;;;;;5.47;2.60;;;461.10;2380.80;;;;;;5060983;28;20028;-62
2023/11/15 01:09:18;;;;;;;5.20;2.95;;;461.10;2380.80;;;;;;5059101;28;20021;-62
2023/11/15 01:11:44;;;;;;;3.28;2.15;;;461.20;2380.80;;;;;;5058303;28;20529;-63
2023/11/15 01:14:11;;;;;;;4.07;1.90;;;461.20;2380.80;;;;;;5054630;28;20115;-65
2023/11/15 01:16:37;;;;;;;2.95;1.70;;;461.30;2380.80;;;;;;5049445;28;20025;-63
2023/11/15 01:19:03;;;;;;;4.93;2.33;;;461.40;2380.80;;;;;;5060558;28;20024;-64
2023/11/15 01:21:29;;;;;;;4.80;2.15;;;461.50;2380.80;;;;;;5055541;28;20669;-61
2023/11/15 01:23:55;;;;;;;3.35;1.77;;;461.50;2380.80;;;;;;5059592;28;20033;-62
2023/11/15 01:26:21;;;;;;;3.60;1.60;;;461.60;2380.80;;;;;;5060216;28;20040;-62
2023/11/15 01:28:46;;;;;;;2.15;1.40;;;461.70;2380.80;;;;;;5058323;28;20442;-62
2023/11/15 01:31:12;;;;;;;2.35;1.30;;;486.40;2380.80;;;;;;5059789;28;20029;-63
2023/11/15 01:33:38;;;;;;;4.22;1.55;;;486.40;2380.80;;;;;;5059666;28;20120;-63
2023/11/15 01:36:04;;;;;;;2.00;1.25;;;486.50;2380.80;;;;;;5058258;28;20033;-64
2023/11/15 01:38:30;;;;;;;2.28;1.40;;;486.70;2380.80;;;;;;5059920;28;20020;-63
2023/11/15 01:40:56;;;;;;;2.63;1.35;;;486.70;2380.80;;;;;;5059174;28;20025;-62
2023/11/15 01:43:22;;;;;;;2.83;1.70;;;486.80;2380.80;;;;;;5060301;28;20055;-63
2023/11/15 01:45:48;;;;;;;2.40;1.60;;;486.90;2380.80;;;;;;5055396;28;20067;-64
2023/11/15 01:48:16;;;;;;;4.07;1.90;;;486.90;2380.80;;;;;;5059820;28;20373;-62
2023/11/15 01:50:43;;;;;;;3.63;1.73;;;486.90;2380.80;;;;;;5059901;28;20096;-63
2023/11/15 01:53:10;;;;;;;3.53;1.55;;;487.00;2380.80;;;;;;5055743;28;20090;-62
2023/11/15 01:55:37;;;;;;;4.25;1.40;;;487.10;2380.80;;;;;;5058930;28;20024;-62
2023/11/15 01:58:04;;;;;;;2.63;1.27;;;487.10;2380.80;;;;;;5059935;28;20021;-62
2023/11/15 02:00:32;;;;;;;2.70;1.80;;;487.10;2380.80;;;;;;5055198;28;20033;-62
2023/11/15 02:02:58;;;;;;;3.50;1.55;;;487.10;2380.80;;;;;;5058580;28;20120;-62
2023/11/15 02:05:25;;;;;;;2.38;1.70;;;487.10;2380.80;;;;;;5059638;28;20119;-61
2023/11/15 02:07:52;;;;;;;3.13;1.88;;;487.20;2380.80;;;;;;5058061;28;20025;-62
2023/11/15 02:10:19;;;;;;;3.40;1.50;;;487.30;2380.80;;;;;;5058535;28;20028;-61
2023/11/15 02:12:46;;;;;;;3.95;1.38;;;487.30;2380.80;;;;;;5059963;28;20032;-62
2023/11/15 02:15:15;;;;;;;3.20;1.33;;;512.00;2380.80;;;;;;5058245;28;20028;-62
2023/11/15 02:17:42;;;;;;;1.23;0.93;;;512.00;2380.80;;;;;;5058180;28;20025;-63
2023/11/15 02:20:08;;;;;;;1.95;1.30;;;512.20;2380.80;;;;;;5059799;28;20044;-62
2023/11/15 02:22:46;;;;;;;4.53;1.50;;;512.20;2380.80;;;;;;5058627;28;20104;-62
2023/11/15 02:25:13;;;;;;;1.48;1.02;;;512.30;2380.80;;;;;;5055677;28;20071;-60
2023/11/15 02:27:39;;;;;;;1.65;1.13;;;512.40;2380.80;;;;;;5057970;28;20029;-63
2023/11/15 02:30:07;;;;;;;2.42;1.40;;;512.40;2380.80;;;;;;5059586;28;20024;-61
2023/11/15 02:32:33;;;;;;;1.42;1.23;;;512.50;2380.80;;;;;;5058228;28;20060;-60
2023/11/15 02:34:58;;;;;;;1.58;1.10;;;512.60;2380.80;;;;;;5061914;28;20074;-61
2023/11/15 02:37:25;;;;;;;1.25;1.13;;;512.60;2380.80;;;;;;5063869;28;20029;-62
2023/11/15 02:39:51;;;;;;;1.85;0.98;;;512.70;2355.20;;;;;;5061692;28;20410;-62
2023/11/15 02:42:17;;;;;;;8.98;5.00;;;512.70;2355.20;;;;;;5062671;28;20021;-62
2023/11/15 02:44:42;;;;;;;12.48;8.68;;;512.70;2380.80;;;;;;5063266;28;20075;-62
2023/11/15 02:47:08;;;;;;;15.30;9.15;;;512.60;2380.80;;;;;;5061754;28;20027;-61
2023/11/15 02:49:36;;;;;;;30.02;18.10;;;512.30;2380.80;;;;;;5062778;28;20415;-61
2023/11/15 02:52:02;;;;;;;53.72;33.95;;;512.00;2380.80;;;;;;5063272;28;20072;-62
2023/11/15 02:54:28;;;;;;;12.27;7.82;;;487.10;2380.80;;;;;;5063565;28;20453;-65
2023/11/15 02:56:54;;;;;;;11.25;9.38;;;486.70;2380.80;;;;;;5062064;28;20052;-63
2023/11/15 02:59:19;;;;;;;22.80;14.02;;;461.60;2380.80;;;;;;5061699;28;20035;-64
2023/11/15 03:01:47;;;;;;;16.80;11.10;;;461.10;2380.80;;;;;;5063148;28;20063;-64
2023/11/15 03:04:13;;;;;;;18.70;12.20;;;436.10;2355.20;;;;;;5061488;28;20553;-64
2023/11/15 03:06:38;;;;;;;19.73;13.80;;;435.90;2355.20;;;;;;5061994;28;20016;-63
2023/11/15 03:09:05;;;;;;;12.60;9.02;;;435.60;2355.20;;;;;;5063150;28;20846;-63
2023/11/15 03:11:31;;;;;;;38.05;25.00;;;435.60;2355.20;;;;;;5061051;28;20070;-63
2023/11/15 03:13:57;;;;;;;12.57;8.55;;;435.60;2355.20;;;;;;5062259;28;20024;-65
2023/11/15 03:16:22;;;;;;;16.95;11.45;;;435.50;2355.20;;;;;;5059958;28;20020;-62
2023/11/15 03:18:48;;;;;;;26.40;18.30;;;435.40;2355.20;;;;;;5061265;28;20028;-64
2023/11/15 03:21:14;;;;;;;16.88;9.63;;;435.30;2355.20;;;;;;5061886;28;20137;-62
2023/11/15 03:23:39;;;;;;;12.25;7.15;;;435.20;2355.20;;;;;;5062376;28;20039;-63
2023/11/15 03:26:06;;;;;;;7.22;5.63;;;435.20;2355.20;;;;;;5060950;28;20031;-65
2023/11/15 03:28:32;;;;;;;7.75;5.43;;;410.50;2355.20;;;;;;5061627;28;20025;-62
2023/11/15 03:30:57;;;;;;;9.93;7.43;;;410.50;2355.20;;;;;;5062139;28;20100;-62
2023/11/15 03:33:23;;;;;;;17.92;13.10;;;410.40;2355.20;;;;;;5060430;28;20075;-62
2023/11/15 03:35:49;;;;;;;11.98;7.15;;;410.30;2355.20;;;;;;5061924;28;20078;-62
2023/11/15 03:38:16;;;;;;;8.77;5.75;;;410.50;2355.20;;;;;;5061831;28;20028;-62
2023/11/15 03:40:41;;;;;;;8.15;6.38;;;410.50;2355.20;;;;;;5060478;28;20021;-63
2023/11/15 03:43:08;;;;;;;6.57;5.60;;;410.30;2355.20;;;;;;5062508;28;20099;-63
2023/11/15 03:45:34;;;;;;;7.65;5.50;;;410.50;2355.20;;;;;;5050821;28;20079;-62
2023/11/15 03:48:03;;;;;;;8.35;6.47;;;410.40;2355.20;;;;;;5053612;28;20052;-64
2023/11/15 03:50:29;;;;;;;10.15;7.28;;;410.50;2355.20;;;;;;5057902;28;20013;-62
2023/11/15 03:52:54;;;;;;;15.68;12.40;;;410.30;2355.20;;;;;;5061595;28;20100;-62
2023/11/15 03:55:20;;;;;;;18.17;11.75;;;410.50;2355.20;;;;;;5061819;28;20048;-62
2023/11/15 03:57:46;;;;;;;13.40;10.63;;;410.30;2355.20;;;;;;5060375;28;20017;-62
2023/11/15 04:00:14;;;;;;;11.65;8.45;;;410.30;2355.20;;;;;;5061261;28;20089;-63
2023/11/15 04:02:40;;;;;;;10.75;9.52;;;410.20;2355.20;;;;;;5061828;28;20060;-66
2023/11/15 04:05:09;;;;;;;17.63;11.88;;;410.30;2355.20;;;;;;5059754;28;20037;-64
2023/11/15 04:07:34;;;;;;;16.45;12.10;;;410.20;2355.20;;;;;;5061089;28;20375;-62
2023/11/15 04:10:01;;;;;;;16.83;12.77;;;410.20;2355.20;;;;;;5061462;28;20086;-63
2023/11/15 04:12:26;;;;;;;11.80;8.18;;;410.20;2355.20;;;;;;5041510;28;20033;-61
2023/11/15 04:14:52;;;;;;;13.50;9.90;;;410.20;2355.20;;;;;;5061183;28;20028;-62
2023/11/15 04:17:18;;;;;;;13.30;9.20;;;410.30;2355.20;;;;;;5061512;28;20032;-65
2023/11/15 04:19:43;;;;;;;13.10;8.38;;;410.30;2355.20;;;;;;5059557;28;20021;-62
2023/11/15 04:22:09;;;;;;;13.43;9.23;;;410.20;2355.20;;;;;;5061421;28;20528;-64
2023/11/15 04:24:38;;;;;;;11.77;7.03;;;410.30;2355.20;;;;;;5060761;28;20090;-61
2023/11/15 04:27:05;;;;;;;11.98;8.13;;;410.30;2355.20;;;;;;5059534;28;20013;-63
2023/11/15 04:29:31;;;;;;;12.57;8.70;;;410.20;2355.20;;;;;;5060951;28;20062;-65
2023/11/15 04:31:58;;;;;;;16.40;10.52;;;410.30;2355.20;;;;;;5056218;28;20028;-66
2023/11/15 04:34:23;;;;;;;12.35;8.75;;;410.40;2355.20;;;;;;5050785;28;20463;-63
2023/11/15 04:36:49;;;;;;;10.10;7.85;;;410.30;2355.20;;;;;;5050847;28;20064;-63
2023/11/15 04:39:15;;;;;;;11.35;7.72;;;410.30;2355.20;;;;;;5051117;28;20025;-63
2023/11/15 04:41:40;;;;;;;10.38;7.80;;;410.30;2355.20;;;;;;5050906;28;20466;-62
2023/11/15 04:44:06;;;;;;;10.70;7.90;;;410.30;2355.20;;;;;;5050808;28;20033;-63
2023/11/15 04:46:34;;;;;;;15.00;9.60;;;410.30;2355.20;;;;;;5050848;28;20028;-63
2023/11/15 04:49:00;;;;;;;36.28;23.63;;;410.20;2355.20;;;;;;5050564;28;20052;-63
2023/11/15 04:51:26;;;;;;;68.60;40.78;;;410.20;2355.20;;;;;;5050683;28;20103;-63
2023/11/15 04:53:52;;;;;;;24.05;17.25;;;410.10;2355.20;;;;;;5050529;28;20103;-64
2023/11/15 04:56:18;;;;;;;24.95;17.85;;;410.00;2355.20;;;;;;5050470;28;20017;-63
2023/11/15 04:58:43;;;;;;;17.02;13.45;;;410.00;2355.20;;;;;;5050776;28;20112;-64
2023/11/15 05:01:09;;;;;;;27.90;20.67;;;409.90;2355.20;;;;;;5065322;28;20476;-62
2023/11/15 05:03:35;;;;;;;32.95;25.08;;;409.90;2355.20;;;;;;5052372;28;20041;-63
2023/11/15 05:06:01;;;;;;;37.85;25.75;;;409.70;2355.20;;;;;;5056555;28;20039;-64
2023/11/15 05:08:26;;;;;;;29.88;23.75;;;409.80;2355.20;;;;;;5055946;28;20025;-64
2023/11/15 05:10:52;;;;;;;24.88;18.88;;;384.90;2329.60;;;;;;5054813;28;20033;-62
2023/11/15 05:13:19;;;;;;;27.02;17.95;;;384.80;2329.60;;;;;;5054753;28;20025;-63
2023/11/15 05:15:45;;;;;;;16.92;15.13;;;384.90;2329.60;;;;;;5055619;28;20083;-63
2023/11/15 05:18:11;;;;;;;10.82;8.90;;;384.60;2329.60;;;;;;5048074;28;20029;-63
2023/11/15 05:20:36;;;;;;;13.18;10.13;;;384.30;2329.60;;;;;;5048889;28;20028;-63
2023/11/15 05:23:03;;;;;;;13.98;11.63;;;384.40;2329.60;;;;;;5048755;28;20440;-63
2023/11/15 05:25:29;;;;;;;9.82;8.35;;;384.30;2329.60;;;;;;5048589;28;20045;-65
2023/11/15 05:27:55;;;;;;;8.23;6.35;;;384.40;2329.60;;;;;;5048939;28;20029;-62
2023/11/15 05:30:21;;;;;;;8.20;7.28;;;384.20;2329.60;;;;;;5047706;28;20125;-62
2023/11/15 05:32:47;;;;;;;9.07;7.10;;;384.30;2329.60;;;;;;5048278;28;20751;-63
2023/11/15 05:35:13;;;;;;;7.50;5.63;;;384.30;2329.60;;;;;;5048529;28;20051;-62
2023/11/15 05:37:39;;;;;;;13.10;9.82;;;384.10;2329.60;;;;;;5048627;28;20074;-61
2023/11/15 05:40:07;;;;;;;9.50;7.10;;;384.30;2329.60;;;;;;5048551;28;20017;-62
2023/11/15 05:42:33;;;;;;;9.13;6.07;;;384.30;2329.60;;;;;;5047570;28;20052;-63
2023/11/15 05:44:59;;;;;;;9.05;8.18;;;384.20;2329.60;;;;;;5047977;28;20467;-63
2023/11/15 05:47:26;;;;;;;11.57;10.00;;;384.20;2329.60;;;;;;5048446;28;20029;-63
2023/11/15 05:49:55;;;;;;;11.50;10.43;;;384.10;2329.60;;;;;;5048183;28;20028;-63
2023/11/15 05:52:21;;;;;;;8.20;6.57;;;384.10;2329.60;;;;;;5048172;28;20477;-61
2023/11/15 05:54:47;;;;;;;13.45;9.60;;;384.10;2329.60;;;;;;5048403;28;20029;-63
2023/11/15 05:57:13;;;;;;;16.08;14.40;;;359.30;2329.60;;;;;;5047579;28;20024;-62
2023/11/15 05:59:39;;;;;;;11.38;10.38;;;384.30;2329.60;;;;;;5048074;28;20029;-63
2023/11/15 06:02:05;;;;;;;9.95;7.95;;;384.30;2329.60;;;;;;5048031;28;20128;-62
2023/11/15 06:04:34;;;;;;;25.25;22.95;;;384.20;2329.60;;;;;;5047833;28;20167;-64
2023/11/15 06:07:01;;;;;;;13.50;10.07;;;384.20;2329.60;;;;;;5047820;28;20067;-64
2023/11/15 06:09:27;;;;;;;12.98;10.95;;;384.10;2329.60;;;;;;5046878;28;20299;-62
2023/11/15 06:11:53;;;;;;;7.85;6.72;;;384.10;2329.60;;;;;;5048023;28;20032;-63
2023/11/15 06:14:19;;;;;;;5.78;4.88;;;384.00;2329.60;;;;;;5048240;28;20494;-64
2023/11/15 06:16:45;;;;;;;5.13;3.60;;;384.10;2329.60;;;;;;5048208;28;20028;-65
2023/11/15 06:19:11;;;;;;;3.60;3.10;;;384.10;2329.60;;;;;;5047876;28;20033;-63
2023/11/15 06:21:41;;;;;;;3.50;2.25;;;384.00;2329.60;;;;;;5047815;28;20048;-62
2023/11/15 06:24:07;;;;;;;6.20;2.38;;;384.00;2329.60;;;;;;5047935;28;20075;-62
2023/11/15 06:26:37;;;;;;;4.80;3.15;;;359.30;2329.60;;;;;;5047750;28;20503;-63
2023/11/15 06:29:05;;;;;;;15.07;11.45;;;384.00;2329.60;;;;;;5048003;28;20036;-64
2023/11/15 06:31:37;;;;;;;14.23;11.15;;;384.00;2329.60;;;;;;5047711;28;20022;-62
2023/11/15 06:34:08;;;;;;;154.02;99.78;;;384.00;2329.60;;;;;;5047604;28;20376;-63
2023/11/15 06:36:39;;;;;;;25.05;18.05;;;359.30;2329.60;;;;;;5047358;28;20394;-63
2023/11/15 06:39:05;;;;;;;30.75;25.65;;;359.30;2329.60;;;;;;5047766;28;20083;-65
2023/11/15 06:41:38;;;;;;;32.22;28.92;;;384.10;2329.60;;;;;;5047864;28;20052;-63
2023/11/15 06:44:07;;;;;;;10.70;7.88;;;384.10;2329.60;;;;;;5047503;28;20033;-63
2023/11/15 06:46:38;;;;;;;6.57;4.05;;;359.30;2329.60;;;;;;5047724;28;20021;-65
2023/11/15 06:49:10;;;;;;;6.10;2.67;;;359.10;2329.60;;;;;;5047059;28;20085;-61
2023/11/15 06:51:37;;;;;;;5.72;3.67;;;359.10;2329.60;;;;;;5047848;28;20025;-63
2023/11/15 06:54:03;;;;;;;14.52;12.10;;;359.10;2329.60;;;;;;5047634;28;20434;-63
2023/11/15 06:56:29;;;;;;;12.68;11.32;;;359.20;2329.60;;;;;;5047734;28;20029;-61
2023/11/15 06:58:55;;;;;;;11.57;9.48;;;359.30;2329.60;;;;;;5047711;28;20017;-62
2023/11/15 07:01:21;;;;;;;8.10;6.38;;;359.30;2329.60;;;;;;5046855;28;20037;-62
2023/11/15 07:03:49;;;;;;;7.85;4.90;;;359.30;2329.60;;;;;;5047458;28;20041;-63
2023/11/15 07:06:15;;;;;;;13.48;11.00;;;359.30;2329.60;;;;;;5047580;28;20040;-63
2023/11/15 07:08:41;;;;;;;15.93;11.05;;;384.00;2329.60;;;;;;5047420;28;20025;-64
2023/11/15 07:11:10;;;;;;;3.75;2.28;;;359.30;2329.60;;;;;;5047498;28;20021;-62
2023/11/15 07:13:36;;;;;;;4.97;4.00;;;359.30;2329.60;;;;;;5047620;28;20506;-62
2023/11/15 07:16:05;;;;;;;4.93;3.30;;;359.30;2329.60;;;;;;5046774;28;20017;-63
2023/11/15 07:18:34;;;;;;;28.10;19.17;;;384.00;2329.60;;;;;;5047238;28;20029;-61
2023/11/15 07:21:00;;;;;;;9.95;7.10;;;384.10;2329.60;;;;;;5051019;28;20029;-62
2023/11/15 07:23:26;;;;;;;10.07;7.18;;;359.20;2329.60;;;;;;5051326;28;20094;-62
2023/11/15 07:25:54;;;;;;;3.90;2.53;;;359.30;2329.60;;;;;;5050884;28;20028;-62
2023/11/15 07:28:20;;;;;;;9.27;8.07;;;384.10;2329.60;;;;;;5050486;28;20500;-62
2023/11/15 07:30:46;;;;;;;7.03;4.95;;;384.10;2329.60;;;;;;5050949;28;20099;-61
2023/11/15 07:33:14;;;;;;;7.35;4.78;;;359.30;2329.60;;;;;;5050894;28;20033;-62
2023/11/15 07:35:40;;;;;;;6.70;4.40;;;359.20;2329.60;;;;;;5051064;28;20397;-63
2023/11/15 07:38:09;;;;;;;6.72;3.80;;;359.20;2329.60;;;;;;5050830;28;20079;-63
2023/11/15 07:40:38;;;;;;;9.05;7.10;;;359.00;2329.60;;;;;;5050506;28;20024;-62
2023/11/15 07:43:07;;;;;;;5.13;3.80;;;359.00;2329.60;;;;;;5050777;28;20025;-62
2023/11/15 07:45:35;;;;;;;5.05;3.65;;;358.90;2329.60;;;;;;5050431;28;20044;-61
2023/11/15 07:48:10;;;;;;;7.70;5.13;;;358.90;2329.60;;;;;;5050592;28;20036;-62
2023/11/15 07:50:36;;;;;;;12.05;8.52;;;358.80;2329.60;;;;;;5051158;28;20032;-62
2023/11/15 07:53:02;;;;;;;23.25;20.95;;;358.80;2329.60;;;;;;5052390;28;20025;-62
2023/11/15 07:55:29;;;;;;;15.55;13.60;;;358.90;2329.60;;;;;;5052133;28;20052;-62
2023/11/15 07:57:56;;;;;;;9.52;7.57;;;333.30;2329.60;;;;;;5052115;28;20028;-62
2023/11/15 08:00:24;;;;;;;11.10;8.27;;;358.90;2329.60;;;;;;5051530;28;20036;-63
2023/11/15 08:02:54;;;;;;;7.88;6.30;;;358.80;2329.60;;;;;;5051693;28;20049;-62
2023/11/15 08:05:21;;;;;;;5.68;3.90;;;358.80;2329.60;;;;;;5051143;28;20387;-62
2023/11/15 08:07:49;;;;;;;11.00;8.57;;;358.80;2329.60;;;;;;5051489;28;20021;-61
2023/11/15 08:10:16;;;;;;;7.15;3.90;;;358.90;2329.60;;;;;;5050813;28;20040;-62
2023/11/15 08:12:46;;;;;;;4.53;2.50;;;358.80;2329.60;;;;;;5051389;28;20017;-62
2023/11/15 08:15:15;;;;;;;7.50;5.30;;;358.80;2329.60;;;;;;5051232;28;20021;-62
2023/11/15 08:17:50;;;;;;;78.95;62.83;;;358.60;2329.60;;;;;;5051219;28;20017;-67
2023/11/15 08:20:17;;;;;;;165.32;140.85;;;358.70;2329.60;;;;;;5051778;28;20086;-65
2023/11/15 08:22:43;;;;;;;56.60;44.85;;;358.70;2329.60;;;;;;5050935;28;20447;-66
2023/11/15 08:25:10;;;;;;;118.93;106.07;;;358.80;2329.60;;;;;;5051422;28;20076;-65
2023/11/15 08:27:38;;;;;;;42.22;36.45;;;358.70;2329.60;;;;;;5051157;28;20029;-66
2023/11/15 08:30:14;;;;;;;10.77;7.78;;;358.70;2329.60;;;;;;5051140;28;20041;-65
2023/11/15 08:32:41;;;;;;;6.53;4.82;;;358.90;2329.60;;;;;;5050668;28;20021;-66
2023/11/15 08:35:09;;;;;;;68.05;54.00;;;358.60;2329.60;;;;;;5051426;28;20471;-65
2023/11/15 08:37:36;;;;;;;53.30;48.00;;;358.50;2329.60;;;;;;5051101;28;20040;-65
2023/11/15 08:40:03;;;;;;;34.67;29.50;;;358.40;2329.60;;;;;;5051112;28;20060;-62
2023/11/15 08:42:29;;;;;;;21.95;17.92;;;358.40;2329.60;;;;;;5051122;28;20044;-64
2023/11/15 08:44:55;;;;;;;14.25;12.55;;;358.40;2329.60;;;;;;5068842;28;20083;-64
2023/11/15 08:47:25;;;;;;;58.90;42.65;;;358.50;2329.60;;;;;;5071126;28;20479;-64
2023/11/15 08:49:53;;;;;;;57.72;43.22;;;358.50;2329.60;;;;;;5070991;28;20031;-64
2023/11/15 08:52:19;;;;;;;58.70;41.78;;;358.60;2329.60;;;;;;5071233;28;20021;-64
2023/11/15 08:54:46;;;;;;;62.60;41.63;;;358.60;2329.60;;;;;;5070973;28;20525;-65
2023/11/15 08:57:15;;;;;;;19.08;15.15;;;358.50;2329.60;;;;;;5070805;28;20032;-64
2023/11/15 08:59:42;;;;;;;15.00;12.50;;;333.70;2329.60;;;;;;5071001;28;20029;-64
2023/11/15 09:02:08;;;;;;;18.33;14.95;;;333.60;2329.60;;;;;;5070684;28;20049;-64
2023/11/15 09:04:35;;;;;;;64.13;38.67;;;333.60;2329.60;;;;;;5070957;28;20036;-65
2023/11/15 09:07:01;;;;;;;39.42;30.27;;;333.60;2329.60;;;;;;5070605;28;20013;-65
2023/11/15 09:09:26;;;;;;;30.05;27.20;;;333.60;2329.60;;;;;;5070582;28;20374;-64
2023/11/15 09:11:56;;;;;;;16.10;11.88;;;333.70;2329.60;;;;;;5070359;28;20032;-65
2023/11/15 09:14:23;;;;;;;27.40;20.98;;;333.70;2329.60;;;;;;5070621;28;20481;-65
2023/11/15 09:16:50;;;;;;;39.10;32.60;;;358.40;2329.60;;;;;;5070685;28;20024;-65
2023/11/15 09:19:20;;;;;;;41.00;32.75;;;358.40;2329.60;;;;;;5070477;28;20028;-65
2023/11/15 09:21:47;;;;;;;33.35;26.55;;;333.70;2329.60;;;;;;5071129;28;20035;-63
2023/11/15 09:24:18;;;;;;;43.42;35.67;;;333.60;2329.60;;;;;;5070877;28;20058;-65
2023/11/15 09:26:48;;;;;;;29.05;19.35;;;333.50;2329.60;;;;;;5071020;28;20028;-66
2023/11/15 09:29:14;;;;;;;38.53;25.70;;;333.50;2329.60;;;;;;5069948;28;20107;-65
2023/11/15 09:31:43;;;;;;;64.05;44.88;;;333.50;2329.60;;;;;;5069991;28;20024;-65
2023/11/15 09:34:11;;;;;;;22.67;18.83;;;333.50;2329.60;;;;;;5070095;28;20036;-64
2023/11/15 09:36:37;;;;;;;30.00;24.20;;;333.60;2329.60;;;;;;5070296;28;20021;-65
2023/11/15 09:39:06;;;;;;;37.50;30.33;;;333.60;2329.60;;;;;;5056346;28;20040;-66
2023/11/15 09:41:33;;;;;;;34.03;25.60;;;333.60;2329.60;;;;;;5049817;28;20025;-64
2023/11/15 09:44:01;;;;;;;41.42;35.05;;;333.60;2329.60;;;;;;5049410;28;20115;-64
2023/11/15 09:46:28;;;;;;;20.20;16.00;;;333.60;2329.60;;;;;;5046981;28;20467;-64
2023/11/15 09:48:54;;;;;;;27.75;20.95;;;358.60;2329.60;;;;;;5049426;28;20108;-64
2023/11/15 09:51:24;;;;;;;29.40;22.42;;;333.60;2329.60;;;;;;5048928;28;20029;-64
2023/11/15 09:53:54;;;;;;;21.05;10.63;;;333.70;2329.60;;;;;;5048914;28;20032;-64
2023/11/15 09:56:21;;;;;;;43.60;28.00;;;333.70;2329.60;;;;;;5049144;28;20033;-65
2023/11/15 09:58:48;;;;;;;36.83;31.15;;;333.60;2329.60;;;;;;5050808;28;20017;-66
2023/11/15 10:01:14;;;;;;;39.75;33.03;;;333.50;2329.60;;;;;;5051337;28;20037;-65
2023/11/15 10:03:41;;;;;;;27.10;24.38;;;333.60;2329.60;;;;;;5052091;28;20383;-65
2023/11/15 10:06:08;;;;;;;13.85;11.77;;;333.60;2329.60;;;;;;5051964;28;20025;-66
2023/11/15 10:08:51;;;;;;;53.25;40.05;;;358.40;2329.60;;;;;;5050518;28;20025;-69
2023/11/15 10:11:17;;;;;;;34.00;24.85;;;358.40;2329.60;;;;;;5048911;28;20027;-65
2023/11/15 10:13:43;;;;;;;78.72;36.22;;;358.50;2329.60;;;;;;5049626;28;20024;-64
2023/11/15 10:16:22;;;;;;;45.50;29.45;;;358.60;2329.60;;;;;;5049135;28;20545;-63
2023/11/15 10:18:48;;;;;;;4.80;3.22;;;358.70;2329.60;;;;;;5049229;28;20468;-63
2023/11/15 10:21:14;;;;;;;10.75;6.18;;;358.80;2329.60;;;;;;5049082;28;20037;-64
2023/11/15 10:23:41;;;;;;;68.75;53.50;;;358.80;2329.60;;;;;;5048856;28;20025;-64
2023/11/15 10:26:09;;;;;;;4.28;3.05;;;358.90;2329.60;;;;;;5048602;28;20033;-64
2023/11/15 10:28:39;;;;;;;37.08;27.35;;;359.00;2329.60;;;;;;5048876;28;20492;-64
2023/11/15 10:31:15;;;;;;;33.35;24.50;;;358.90;2329.60;;;;;;5048558;28;20505;-63
2023/11/15 10:33:53;;;;;;;106.80;80.88;;;359.00;2329.60;;;;;;5047375;28;20025;-63
2023/11/15 10:36:21;;;;;;;78.88;52.90;;;359.00;2329.60;;;;;;5046957;28;20025;-62
2023/11/15 10:38:55;;;;;;;52.20;40.35;;;359.00;2329.60;;;;;;5048915;28;20025;-64
2023/11/15 10:41:25;;;;;;;37.50;30.50;;;358.90;2329.60;;;;;;5048662;28;20484;-64
2023/11/15 10:43:54;;;;;;;34.70;28.75;;;358.80;2329.60;;;;;;5048043;28;20041;-63
2023/11/15 10:46:22;;;;;;;21.50;19.20;;;358.50;2329.60;;;;;;5048356;28;20013;-65
2023/11/15 10:48:49;;;;;;;25.33;20.15;;;358.50;2329.60;;;;;;5048429;28;20030;-64
2023/11/15 10:51:22;;;;;;;5.30;4.15;;;358.50;2329.60;;;;;;5050301;28;20028;-63
2023/11/15 10:53:49;;;;;;;7.47;5.78;;;358.50;2329.60;;;;;;5056315;28;20054;-64
2023/11/15 10:56:15;;;;;;;62.30;47.10;;;358.60;2329.60;;;;;;5062680;28;20029;-62
2023/11/15 10:58:53;;;;;;;39.75;33.38;;;358.50;2329.60;;;;;;5063597;28;20398;-63
2023/11/15 11:01:19;;;;;;;41.03;28.88;;;358.50;2329.60;;;;;;5061463;28;20033;-66
2023/11/15 11:03:54;;;;;;;32.03;22.98;;;358.60;2329.60;;;;;;5061453;28;20044;-64
2023/11/15 11:06:29;;;;;;;8.00;5.28;;;358.50;2329.60;;;;;;5062835;28;20074;-64
2023/11/15 11:09:21;;;;;;;17.35;11.35;;;358.50;2329.60;;;;;;5060798;28;20474;-63
2023/11/15 11:11:59;;;;;;;17.17;10.90;;;358.50;2329.60;;;;;;5063135;28;20032;-64
2023/11/15 11:14:27;;;;;;;8.07;5.40;;;358.60;2329.60;;;;;;5060022;28;20017;-64
2023/11/15 11:16:56;;;;;;;34.35;25.35;;;358.70;2329.60;;;;;;5061604;28;20024;-63
2023/11/15 11:19:24;;;;;;;79.05;54.97;;;358.80;2329.60;;;;;;5058977;28;20414;-64
2023/11/15 11:24:32;;;;;;;22.35;16.13;;;359.00;2329.60;;;;;;5051282;28;20082;-64
2023/11/15 11:27:15;;;;;;;13.43;9.90;;;359.00;2329.60;;;;;;5052212;28;20066;-64
2023/11/15 11:30:00;;;;;;;5.93;4.15;;;359.10;2329.60;;;;;;5050221;28;20080;-64
2023/11/15 11:32:27;;;;;;;29.05;26.15;;;359.10;2329.60;;;;;;5052204;28;20025;-63
2023/11/15 11:35:05;;;;;;;24.73;19.00;;;359.20;2329.60;;;;;;5053459;28;20032;-63
2023/11/15 11:37:44;;;;;;;34.13;22.23;;;359.20;2329.60;;;;;;5051079;28;20036;-64
2023/11/15 11:40:13;;;;;;;35.65;27.10;;;359.20;2329.60;;;;;;5051742;28;20059;-65
2023/11/15 11:42:40;;;;;;;135.38;92.20;;;359.30;2329.60;;;;;;5051601;28;20056;-64
2023/11/15 11:45:08;;;;;;;89.22;62.40;;;359.10;2329.60;;;;;;5052048;28;20041;-64
2023/11/15 11:47:46;;;;;;;32.95;25.92;;;359.00;2329.60;;;;;;5051829;28;20025;-64
2023/11/15 11:50:17;;;;;;;9.73;8.32;;;359.00;2329.60;;;;;;5051994;28;20033;-64
2023/11/15 11:52:43;;;;;;;19.30;15.52;;;358.90;2329.60;;;;;;5051938;28;20025;-64
2023/11/15 11:55:09;;;;;;;9.80;5.00;;;358.90;2329.60;;;;;;5051514;28;20120;-63
2023/11/15 11:57:34;;;;;;;45.60;34.28;;;359.00;2329.60;;;;;;5051425;28;20013;-62
2023/11/15 12:00:11;;;;;;;155.85;119.20;;;358.90;2329.60;;;;;;5051135;28;20471;-64
2023/11/15 12:02:53;;;;;;;87.03;61.03;;;359.00;2329.60;;;;;;5051693;28;20137;-63
2023/11/15 12:05:23;;;;;;;77.25;55.13;;;359.00;2329.60;;;;;;5051261;28;20475;-64
2023/11/15 12:07:51;;;;;;;40.63;31.63;;;359.00;2329.60;;;;;;5051109;28;20064;-64
2023/11/15 12:10:18;;;;;;;21.65;16.48;;;359.00;2329.60;;;;;;5051750;28;20029;-64
2023/11/15 12:12:56;;;;;;;15.10;12.23;;;359.00;2329.60;;;;;;5051819;28;20017;-64